Time;durP1;ratioP1;P1;durP2;ratioP2;P2;SDS_P1;SDS_P2;PMS_P1;PMS_P2;Temp;Humidity;BMP_temperature;BMP_pressure;BME280_temperature;BME280_humidity;BME280_pressure;Samples;Min_cycle;Max_cycle;Signal;HPM_P1;HPM_P2
2023/05/08 00:00:19;;;;;;;14.38;13.13;;;;;;;16.59;100.00;101927.84;5232083;28;20041;-69
2023/05/08 00:02:51;;;;;;;14.23;12.93;;;;;;;16.57;100.00;101926.34;5230209;28;20033;-70
2023/05/08 00:05:22;;;;;;;14.60;13.30;;;;;;;16.54;100.00;101928.28;5232786;28;20540;-69
2023/05/08 00:08:00;;;;;;;14.63;13.27;;;;;;;16.50;100.00;101940.13;5237096;28;20059;-69
2023/05/08 00:10:31;;;;;;;15.95;14.45;;;;;;;16.47;100.00;101936.94;5214185;28;20025;-70
2023/05/08 00:13:02;;;;;;;15.63;14.23;;;;;;;16.45;100.00;101928.31;5233835;28;20025;-69
2023/05/08 00:15:35;;;;;;;15.70;14.40;;;;;;;16.46;100.00;101937.91;5236077;28;20029;-69
2023/05/08 00:18:06;;;;;;;15.35;13.77;;;;;;;16.44;100.00;101931.91;5238842;28;20119;-69
2023/05/08 00:20:37;;;;;;;15.45;14.25;;;;;;;16.40;100.00;101936.69;5236211;28;20383;-70
2023/05/08 00:23:09;;;;;;;15.95;14.45;;;;;;;16.44;100.00;101929.28;5233683;28;20041;-69
2023/05/08 00:25:41;;;;;;;16.23;14.88;;;;;;;16.45;100.00;101923.84;5232530;28;20033;-69
2023/05/08 00:28:13;;;;;;;14.93;13.73;;;;;;;16.39;100.00;101928.88;5237755;28;20482;-70
2023/05/08 00:30:44;;;;;;;15.73;14.48;;;;;;;16.42;100.00;101932.06;5242059;28;20021;-69
2023/05/08 00:33:15;;;;;;;16.38;15.05;;;;;;;16.44;100.00;101930.13;5221646;28;20029;-69
2023/05/08 00:35:47;;;;;;;15.80;14.48;;;;;;;16.40;100.00;101923.47;5241745;28;20541;-70
2023/05/08 00:38:18;;;;;;;15.43;13.98;;;;;;;16.42;100.00;101925.94;5231840;28;20099;-69
2023/05/08 00:40:49;;;;;;;16.13;14.77;;;;;;;16.39;100.00;101931.50;5236292;28;20156;-70
2023/05/08 00:43:24;;;;;;;15.48;14.27;;;;;;;16.36;100.00;101929.16;5240767;28;20035;-70
2023/05/08 00:45:58;;;;;;;13.98;12.80;;;;;;;16.43;100.00;101936.38;5238130;28;20033;-70
2023/05/08 00:48:32;;;;;;;15.10;13.90;;;;;;;16.47;100.00;101929.00;5244891;28;20552;-69
2023/05/08 00:51:06;;;;;;;16.20;14.90;;;;;;;16.40;100.00;101927.88;5244565;28;20025;-69
2023/05/08 00:53:41;;;;;;;15.07;13.98;;;;;;;16.43;100.00;101927.59;5242722;28;20035;-70
2023/05/08 00:56:15;;;;;;;16.40;14.93;;;;;;;16.30;100.00;101920.81;5241927;28;20026;-69
2023/05/08 00:58:47;;;;;;;15.75;14.45;;;;;;;16.29;100.00;101921.78;5238675;28;20114;-69
2023/05/08 01:01:18;;;;;;;15.20;13.90;;;;;;;16.29;100.00;101913.03;5242001;28;20104;-69
2023/05/08 01:03:50;;;;;;;14.23;13.02;;;;;;;16.31;100.00;101911.06;5238218;28;20029;-69
2023/05/08 01:06:21;;;;;;;15.00;13.73;;;;;;;16.34;100.00;101912.59;5241138;28;20085;-70
2023/05/08 01:08:52;;;;;;;14.05;12.95;;;;;;;16.28;100.00;101912.16;5238877;28;20125;-69
2023/05/08 01:11:42;;;;;;;15.85;14.20;;;;;;;16.44;100.00;101924.84;5243139;28;20021;-69
2023/05/08 01:14:20;;;;;;;16.83;15.32;;;;;;;16.40;100.00;101922.59;5240034;28;20045;-70
2023/05/08 01:17:12;;;;;;;15.90;14.63;;;;;;;16.47;100.00;101926.34;5237441;28;20426;-69
2023/05/08 01:19:52;;;;;;;15.27;14.00;;;;;;;16.42;100.00;101918.84;5246683;28;20072;-69
2023/05/08 01:22:52;;;;;;;15.48;14.27;;;;;;;16.54;100.00;101912.41;5236517;28;20664;-69
2023/05/08 01:25:44;;;;;;;15.75;14.52;;;;;;;16.28;100.00;101914.81;5239281;28;20038;-69
2023/05/08 01:28:54;;;;;;;16.20;14.80;;;;;;;16.60;100.00;101913.66;5242470;28;20181;-69
2023/05/08 01:32:03;;;;;;;15.57;14.27;;;;;;;16.64;100.00;101915.03;5217301;28;20037;-70
2023/05/08 01:34:39;;;;;;;15.55;14.35;;;;;;;16.32;100.00;101914.53;5241166;28;20028;-69
2023/05/08 01:37:15;;;;;;;15.90;14.70;;;;;;;16.30;100.00;101917.34;5242439;28;20021;-69
2023/05/08 01:40:15;;;;;;;15.30;14.00;;;;;;;16.57;100.00;101923.69;5235964;28;20037;-69
2023/05/08 01:42:52;;;;;;;15.25;14.05;;;;;;;16.26;100.00;101924.72;5234485;28;20037;-69
2023/05/08 01:45:31;;;;;;;15.07;13.88;;;;;;;16.37;100.00;101922.91;5240101;28;20058;-70
2023/05/08 01:48:07;;;;;;;15.43;14.23;;;;;;;16.17;100.00;101906.19;5221910;28;20041;-69
2023/05/08 01:50:46;;;;;;;15.75;14.45;;;;;;;16.30;100.00;101915.53;5242792;28;20021;-69
2023/05/08 01:53:28;;;;;;;16.63;15.10;;;;;;;16.32;100.00;101911.91;5245197;28;20146;-70
2023/05/08 01:56:15;;;;;;;15.90;14.60;;;;;;;16.19;100.00;101906.91;5242016;28;20025;-69
2023/05/08 01:58:50;;;;;;;17.23;15.63;;;;;;;16.14;100.00;101903.84;5241655;28;20025;-69
2023/05/08 02:01:24;;;;;;;16.48;15.07;;;;;;;16.16;100.00;101915.94;5243346;28;20032;-70
2023/05/08 02:03:56;;;;;;;17.15;15.57;;;;;;;16.07;100.00;101919.44;5241557;28;20021;-70
2023/05/08 02:06:30;;;;;;;16.80;15.35;;;;;;;16.07;100.00;101919.44;5238730;28;20082;-69
2023/05/08 02:09:01;;;;;;;16.45;15.20;;;;;;;16.13;100.00;101924.16;5237765;28;20124;-69
2023/05/08 02:11:35;;;;;;;17.85;16.15;;;;;;;16.15;100.00;101916.09;5235983;28;20040;-69
2023/05/08 02:14:07;;;;;;;16.73;15.32;;;;;;;16.18;100.00;101923.75;5223871;28;20036;-69
2023/05/08 02:16:41;;;;;;;15.57;14.30;;;;;;;16.27;100.00;101925.53;5240393;28;20029;-70
2023/05/08 02:19:15;;;;;;;16.42;15.13;;;;;;;16.23;100.00;101930.28;5239032;28;20463;-69
2023/05/08 02:21:47;;;;;;;16.20;14.82;;;;;;;16.27;100.00;101926.38;5219910;28;20538;-70
2023/05/08 02:24:19;;;;;;;14.77;13.48;;;;;;;16.30;100.00;101927.91;5237492;28;20204;-69
2023/05/08 02:26:53;;;;;;;16.50;15.00;;;;;;;16.31;100.00;101932.22;5248352;28;20479;-69
2023/05/08 02:29:25;;;;;;;17.20;15.75;;;;;;;16.24;100.00;101937.22;5228811;28;20551;-69
2023/05/08 02:31:57;;;;;;;17.00;15.50;;;;;;;16.18;100.00;101937.81;5225855;28;20033;-70
2023/05/08 02:34:29;;;;;;;17.85;16.35;;;;;;;16.23;100.00;101932.09;5239515;28;20090;-70
2023/05/08 02:37:02;;;;;;;18.40;16.90;;;;;;;16.20;100.00;101937.66;5244262;28;20033;-70
2023/05/08 02:39:36;;;;;;;16.77;15.38;;;;;;;16.17;100.00;101940.56;5245768;28;20017;-69
2023/05/08 02:42:07;;;;;;;16.63;15.23;;;;;;;16.13;100.00;101940.00;5242444;28;20060;-69
2023/05/08 02:44:38;;;;;;;17.50;16.00;;;;;;;16.15;100.00;101934.59;5242189;28;20534;-70
2023/05/08 02:47:33;;;;;;;17.38;15.98;;;;;;;16.53;100.00;101934.56;5238995;28;20073;-70
2023/05/08 02:50:15;;;;;;;16.63;15.10;;;;;;;16.39;100.00;101940.28;5245996;28;20377;-70
2023/05/08 02:52:50;;;;;;;15.68;14.45;;;;;;;16.29;100.00;101940.31;5240168;28;20029;-69
2023/05/08 02:55:34;;;;;;;15.82;14.63;;;;;;;16.40;100.00;101933.19;5241788;28;20029;-69
2023/05/08 02:58:14;;;;;;;15.93;14.48;;;;;;;16.32;100.00;101935.69;5241389;28;20018;-70
2023/05/08 03:00:59;;;;;;;15.93;14.30;;;;;;;16.44;100.00;101930.13;5239430;28;20045;-70
2023/05/08 03:03:45;;;;;;;15.63;14.32;;;;;;;16.42;100.00;101928.59;5241662;28;20390;-69
2023/05/08 03:06:20;;;;;;;15.88;14.43;;;;;;;16.24;100.00;101928.47;5246535;28;20851;-70
2023/05/08 03:08:55;;;;;;;15.48;14.18;;;;;;;16.22;100.00;101928.63;5243723;28;20482;-70
2023/05/08 03:11:36;;;;;;;16.00;14.60;;;;;;;16.19;100.00;101936.00;5239654;28;20505;-69
2023/05/08 03:14:11;;;;;;;16.05;14.68;;;;;;;16.14;100.00;101925.00;5245295;28;20040;-69
2023/05/08 03:16:44;;;;;;;16.88;15.48;;;;;;;16.04;100.00;101930.28;5245229;28;20031;-69
2023/05/08 03:19:32;;;;;;;17.02;15.63;;;;;;;16.14;100.00;101925.84;5242965;28;20044;-70
2023/05/08 03:22:05;;;;;;;16.85;15.45;;;;;;;15.96;100.00;101916.94;5245486;28;20025;-70
2023/05/08 03:24:38;;;;;;;16.30;14.98;;;;;;;16.01;100.00;101927.91;5240611;28;20033;-70
2023/05/08 03:27:10;;;;;;;17.17;15.77;;;;;;;15.97;100.00;101926.53;5243332;28;20029;-70
2023/05/08 03:29:42;;;;;;;16.05;14.68;;;;;;;15.93;100.00;101928.63;5237364;28;20309;-70
2023/05/08 03:32:16;;;;;;;16.60;15.20;;;;;;;15.92;100.00;101932.25;5240789;28;20475;-70
2023/05/08 03:34:48;;;;;;;;;;;;;;;16.63;100.00;101923.97;5244486;28;20025;-70
2023/05/08 03:37:19;;;;;;;15.23;14.00;;;;;;;15.89;100.00;101929.03;5242491;28;19912;-71
2023/05/08 03:39:51;;;;;;;14.82;13.73;;;;;;;15.80;100.00;101920.97;5239793;28;20091;-71
2023/05/08 03:42:23;;;;;;;16.15;14.93;;;;;;;15.79;100.00;101921.91;5243428;28;20025;-70
2023/05/08 03:44:56;;;;;;;16.63;15.23;;;;;;;15.82;100.00;101916.38;5243766;28;20095;-70
2023/05/08 03:47:28;;;;;;;16.55;15.25;;;;;;;15.76;100.00;101916.94;5241085;28;20037;-70
2023/05/08 03:49:59;;;;;;;15.70;14.50;;;;;;;15.71;100.00;101915.66;5245331;28;20095;-70
2023/05/08 03:52:31;;;;;;;15.85;14.35;;;;;;;15.75;100.00;101915.25;5243535;28;20474;-70
2023/05/08 03:55:03;;;;;;;16.50;15.07;;;;;;;15.71;100.00;101919.13;5223104;28;20390;-70
2023/05/08 03:57:44;;;;;;;16.00;14.55;;;;;;;15.73;100.00;101914.56;5233242;28;20123;-70
2023/05/08 04:00:27;;;;;;;15.75;14.48;;;;;;;15.82;100.00;101915.53;5241770;28;20033;-70
2023/05/08 04:03:08;;;;;;;;;;;;;;;16.43;100.00;101923.16;5243107;28;20031;-70
2023/05/08 04:05:50;;;;;;;15.23;13.82;;;;;;;15.91;100.00;101921.78;5245124;28;19913;-70
2023/05/08 04:08:27;;;;;;;17.20;15.80;;;;;;;15.75;100.00;101917.88;5240461;28;20044;-70
2023/05/08 04:11:08;;;;;;;16.70;15.15;;;;;;;15.78;100.00;101936.13;5239105;28;20108;-70
2023/05/08 04:13:49;;;;;;;16.33;14.98;;;;;;;15.82;100.00;101929.56;5243454;28;20021;-70
2023/05/08 04:16:27;;;;;;;17.80;16.20;;;;;;;15.87;100.00;101925.69;5237891;28;20506;-70
2023/05/08 04:19:03;;;;;;;17.60;16.00;;;;;;;15.74;100.00;101929.44;5240952;28;20429;-70
2023/05/08 04:21:38;;;;;;;17.00;15.60;;;;;;;15.70;100.00;101925.41;5241547;28;20033;-70
2023/05/08 04:24:12;;;;;;;18.67;17.02;;;;;;;15.72;100.00;101936.69;5243398;28;20112;-70
2023/05/08 04:26:44;;;;;;;18.35;16.75;;;;;;;15.65;100.00;101925.00;5240323;28;20029;-70
2023/05/08 04:29:16;;;;;;;17.85;16.25;;;;;;;15.67;100.00;101932.75;5239336;28;20031;-69
2023/05/08 04:31:49;;;;;;;18.08;16.40;;;;;;;15.67;100.00;101936.22;5242662;28;20071;-69
2023/05/08 04:34:21;;;;;;;18.63;16.95;;;;;;;15.70;100.00;101930.69;5239310;28;20100;-70
2023/05/08 04:36:53;;;;;;;18.27;16.65;;;;;;;15.72;100.00;101934.03;5237199;28;20103;-69
2023/05/08 04:39:24;;;;;;;18.85;17.15;;;;;;;15.70;100.00;101935.97;5238664;28;20035;-70
2023/05/08 04:42:01;;;;;;;19.23;17.73;;;;;;;15.80;100.00;101946.56;5238475;28;20123;-69
2023/05/08 04:44:32;;;;;;;17.90;16.50;;;;;;;15.79;100.00;101947.50;5236181;28;20029;-70
2023/05/08 04:47:04;;;;;;;18.75;17.00;;;;;;;15.81;100.00;101940.28;5239003;28;20443;-70
2023/05/08 04:49:35;;;;;;;18.35;16.85;;;;;;;15.87;100.00;101944.19;5236632;28;20017;-70
2023/05/08 04:52:07;;;;;;;18.88;17.27;;;;;;;15.90;100.00;101951.84;5242166;28;20026;-69
2023/05/08 04:54:38;;;;;;;19.08;17.45;;;;;;;15.93;100.00;101955.03;5242908;28;20033;-69
2023/05/08 04:57:09;;;;;;;19.38;17.60;;;;;;;15.94;100.00;101950.59;5242590;28;20479;-70
2023/05/08 04:59:41;;;;;;;19.10;17.60;;;;;;;15.99;100.00;101954.50;5240382;28;20057;-69
2023/05/08 05:02:12;;;;;;;18.83;17.13;;;;;;;15.97;100.00;101958.25;5239262;28;20521;-69
2023/05/08 05:04:43;;;;;;;20.08;18.35;;;;;;;15.98;100.00;101959.91;5240167;28;20390;-69
2023/05/08 05:07:15;;;;;;;19.77;18.08;;;;;;;16.02;100.00;101972.75;5235539;28;20061;-69
2023/05/08 05:09:46;;;;;;;20.50;18.60;;;;;;;16.04;100.00;101969.94;5240304;28;20036;-69
2023/05/08 05:12:17;;;;;;;21.17;19.50;;;;;;;16.08;100.00;101967.88;5235713;28;20033;-70
2023/05/08 05:14:48;;;;;;;20.52;18.70;;;;;;;16.04;100.00;101973.41;5236938;28;20095;-70
2023/05/08 05:17:20;;;;;;;20.27;18.43;;;;;;;16.11;100.00;101973.72;5242865;28;20033;-69
2023/05/08 05:19:51;;;;;;;21.10;19.20;;;;;;;16.10;100.00;101976.47;5237694;28;20291;-68
2023/05/08 05:22:23;;;;;;;20.40;18.52;;;;;;;16.12;100.00;101983.31;5218068;28;20041;-69
2023/05/08 05:24:54;;;;;;;20.90;19.10;;;;;;;16.16;100.00;101981.22;5237830;28;20017;-69
2023/05/08 05:27:25;;;;;;;19.65;18.05;;;;;;;16.20;100.00;101986.09;5237160;28;20037;-69
2023/05/08 05:29:57;;;;;;;20.48;18.67;;;;;;;16.18;100.00;101976.63;5240192;28;20095;-69
2023/05/08 05:32:28;;;;;;;20.30;18.55;;;;;;;16.14;100.00;101988.44;5243042;28;20064;-69
2023/05/08 05:35:00;;;;;;;20.45;18.67;;;;;;;16.17;100.00;101993.44;5238584;28;20371;-70
2023/05/08 05:37:31;;;;;;;22.48;20.38;;;;;;;16.22;100.00;101997.38;5243374;28;20413;-70
2023/05/08 05:40:03;;;;;;;21.25;19.55;;;;;;;16.24;100.00;101998.06;5242255;28;20683;-69
2023/05/08 05:42:34;;;;;;;22.83;20.90;;;;;;;16.27;100.00;101994.31;5239950;28;20028;-70
2023/05/08 05:45:06;;;;;;;21.83;20.02;;;;;;;16.34;100.00;101991.94;5248292;28;20470;-70
2023/05/08 05:47:37;;;;;;;23.15;21.02;;;;;;;16.37;100.00;101999.59;5219105;28;20049;-70
2023/05/08 05:50:09;;;;;;;25.92;23.73;;;;;;;16.37;100.00;102003.06;5239262;28;20434;-69
2023/05/08 05:52:40;;;;;;;24.08;22.02;;;;;;;16.40;100.00;102001.94;5248600;28;20505;-69
2023/05/08 05:55:12;;;;;;;23.58;21.55;;;;;;;16.48;100.00;102010.03;5244420;28;20112;-70
2023/05/08 05:57:43;;;;;;;25.48;23.30;;;;;;;16.47;100.00;102006.53;5243218;28;20021;-70
2023/05/08 06:00:16;;;;;;;25.95;23.65;;;;;;;16.51;100.00;102015.03;5241627;28;20040;-70
2023/05/08 06:02:47;;;;;;;;;;;;;;;17.12;100.00;102006.75;5224162;28;20040;-69
2023/05/08 06:05:18;;;;;;;27.52;25.02;;;;;;;16.52;100.00;102006.13;5241450;28;19917;-70
2023/05/08 06:07:50;;;;;;;28.88;26.17;;;;;;;16.49;100.00;102009.06;5234781;28;20072;-70
2023/05/08 06:10:21;;;;;;;29.27;26.58;;;;;;;16.54;100.00;102006.81;5243287;28;20053;-70
2023/05/08 06:12:53;;;;;;;29.77;27.05;;;;;;;16.52;100.00;102003.50;5225895;28;20029;-70
2023/05/08 06:15:24;;;;;;;31.58;28.67;;;;;;;16.61;100.00;102010.56;5233205;28;20028;-69
2023/05/08 06:17:55;;;;;;;30.75;28.05;;;;;;;16.62;100.00;102004.28;5246061;28;20017;-69
2023/05/08 06:20:27;;;;;;;29.73;27.05;;;;;;;16.59;100.00;102009.88;5225033;28;20026;-70
2023/05/08 06:22:58;;;;;;;32.20;29.20;;;;;;;16.67;100.00;102009.19;5248848;28;20116;-70
2023/05/08 06:25:29;;;;;;;29.67;26.85;;;;;;;16.66;100.00;102005.69;5228120;28;20028;-69
2023/05/08 06:28:02;;;;;;;30.42;27.58;;;;;;;16.78;100.00;102006.38;5241808;28;20044;-69
2023/05/08 06:30:33;;;;;;;30.40;27.70;;;;;;;16.81;100.00;102006.09;5243287;28;20079;-69
2023/05/08 06:33:05;;;;;;;32.78;29.67;;;;;;;16.83;100.00;102012.09;5244195;28;20029;-70
2023/05/08 06:35:36;;;;;;;34.08;30.67;;;;;;;16.85;100.00;102007.50;5241522;28;20382;-70
2023/05/08 06:38:07;;;;;;;33.70;30.50;;;;;;;16.95;100.00;102007.47;5246901;28;20033;-69
2023/05/08 06:40:43;;;;;;;34.28;30.98;;;;;;;17.05;100.00;102010.94;5241773;28;20025;-69
2023/05/08 06:43:14;;;;;;;33.92;30.80;;;;;;;17.02;100.00;102011.22;5243708;28;20037;-70
2023/05/08 06:45:45;;;;;;;34.67;31.55;;;;;;;17.06;100.00;102009.94;5246519;28;20376;-70
2023/05/08 06:48:17;;;;;;;35.40;32.20;;;;;;;17.17;100.00;102015.06;5248028;28;20075;-69
2023/05/08 06:50:50;;;;;;;35.03;31.63;;;;;;;17.31;100.00;102020.88;5242456;28;20029;-70
2023/05/08 06:53:21;;;;;;;33.63;30.63;;;;;;;17.33;100.00;102022.41;5245074;28;20047;-69
2023/05/08 06:55:53;;;;;;;34.95;31.85;;;;;;;17.29;100.00;102020.19;5247834;28;20510;-70
2023/05/08 06:58:24;;;;;;;36.80;33.08;;;;;;;17.31;100.00;102026.16;5242565;28;20021;-70
2023/05/08 07:00:56;;;;;;;38.00;34.42;;;;;;;17.29;100.00;102031.63;5241688;28;20086;-70
2023/05/08 07:03:27;;;;;;;36.80;33.25;;;;;;;17.32;100.00;102035.81;5222337;28;20033;-70
2023/05/08 07:05:58;;;;;;;36.65;33.08;;;;;;;17.30;100.00;102035.94;5246316;28;20026;-70
2023/05/08 07:08:31;;;;;;;38.60;34.72;;;;;;;17.27;100.00;102031.78;5243516;28;20029;-69
2023/05/08 07:11:03;;;;;;;41.38;37.38;;;;;;;17.35;100.00;102038.13;5247627;28;20017;-70
2023/05/08 07:13:35;;;;;;;39.17;35.35;;;;;;;17.26;100.00;102035.38;5246158;28;20032;-70
2023/05/08 07:16:09;;;;;;;38.42;34.83;;;;;;;17.33;100.00;102032.16;5246688;28;20037;-70
2023/05/08 07:18:41;;;;;;;38.85;34.85;;;;;;;17.26;100.00;102037.19;5243603;28;21063;-70
2023/05/08 07:21:14;;;;;;;37.15;33.65;;;;;;;17.29;100.00;102031.63;5237015;28;20407;-70
2023/05/08 07:23:46;;;;;;;36.88;33.45;;;;;;;17.27;100.00;102037.06;5232543;28;20032;-70
2023/05/08 07:26:18;;;;;;;37.85;34.22;;;;;;;17.23;100.00;102032.19;5245748;28;20398;-70
2023/05/08 07:28:53;;;;;;;35.10;31.90;;;;;;;17.30;100.00;102027.97;5230874;28;20044;-69
2023/05/08 07:31:25;;;;;;;35.53;32.08;;;;;;;17.36;100.00;102034.53;5244169;28;20371;-70
2023/05/08 07:33:56;;;;;;;34.33;31.17;;;;;;;17.44;100.00;102040.75;5248534;28;20506;-70
2023/05/08 07:36:27;;;;;;;36.38;32.97;;;;;;;17.55;100.00;102033.63;5252187;28;20033;-70
2023/05/08 07:38:59;;;;;;;34.40;31.13;;;;;;;17.58;100.00;102028.84;5248957;28;20049;-70
2023/05/08 07:41:30;;;;;;;32.92;29.92;;;;;;;17.67;100.00;102024.47;5245361;28;20056;-70
2023/05/08 07:44:02;;;;;;;32.97;29.98;;;;;;;17.69;100.00;102027.78;5248612;28;20017;-70
2023/05/08 07:46:33;;;;;;;31.85;28.95;;;;;;;17.70;100.00;102022.38;5241849;28;20052;-70
2023/05/08 07:49:05;;;;;;;32.57;29.57;;;;;;;17.85;100.00;102029.84;5244010;28;20049;-70
2023/05/08 07:51:36;;;;;;;32.00;29.15;;;;;;;17.88;100.00;102022.44;5246734;28;20043;-70
2023/05/08 07:54:07;;;;;;;31.70;28.92;;;;;;;18.00;100.00;102023.06;5240776;28;20391;-70
2023/05/08 07:56:39;;;;;;;32.55;29.35;;;;;;;18.16;100.00;102033.00;5241701;28;20029;-70
2023/05/08 07:59:10;;;;;;;32.85;29.83;;;;;;;18.23;100.00;102036.72;5245372;28;20126;-70
2023/05/08 08:01:45;;;;;;;31.57;28.87;;;;;;;18.28;100.00;102025.66;5247031;28;20033;-70
2023/05/08 08:04:17;;;;;;;32.88;29.88;;;;;;;18.39;100.00;102028.91;5246151;28;20029;-70
2023/05/08 08:06:48;;;;;;;29.52;26.80;;;;;;;18.43;100.00;102024.94;5237566;28;20024;-70
2023/05/08 08:09:19;;;;;;;30.83;27.97;;;;;;;18.54;100.00;102026.53;5242956;28;20025;-70
2023/05/08 08:11:51;;;;;;;28.93;26.37;;;;;;;18.61;100.00;102037.38;5239730;28;20021;-69
2023/05/08 08:14:22;;;;;;;29.30;26.80;;;;;;;18.70;100.00;102037.31;5238976;28;20305;-69
2023/05/08 08:16:53;;;;;;;30.27;27.50;;;;;;;18.68;100.00;102036.59;5239940;28;20398;-70
2023/05/08 08:19:25;;;;;;;30.80;28.17;;;;;;;18.69;100.00;102030.31;5246926;28;20040;-70
2023/05/08 08:21:56;;;;;;;29.07;26.30;;;;;;;18.74;100.00;102034.34;5237719;28;20033;-70
2023/05/08 08:24:28;;;;;;;29.20;26.60;;;;;;;18.78;100.00;102022.44;5239412;28;20107;-70
2023/05/08 08:26:59;;;;;;;26.02;23.73;;;;;;;18.86;100.00;102035.75;5223053;28;21461;-70
2023/05/08 08:29:30;;;;;;;27.03;24.67;;;;;;;18.98;100.00;102037.19;5226502;28;20025;-70
2023/05/08 08:32:02;;;;;;;27.58;25.13;;;;;;;18.96;100.00;102024.03;5223426;28;20030;-70
2023/05/08 08:34:33;;;;;;;26.33;24.05;;;;;;;19.01;100.00;102025.41;5246862;28;20047;-70
2023/05/08 08:37:08;;;;;;;25.70;23.30;;;;;;;19.07;100.00;102015.00;5235497;28;20036;-70
2023/05/08 08:39:39;;;;;;;25.52;23.25;;;;;;;19.26;100.00;102029.88;5240885;28;20108;-70
2023/05/08 08:42:11;;;;;;;25.33;22.88;;;;;;;19.54;100.00;102027.00;5243953;28;20125;-70
2023/05/08 08:44:42;;;;;;;25.97;23.57;;;;;;;19.60;100.00;102027.19;5240703;28;20010;-70
2023/05/08 08:47:15;;;;;;;24.10;22.10;;;;;;;19.78;100.00;102020.97;5239563;28;20124;-70
2023/05/08 08:49:48;;;;;;;25.90;23.73;;;;;;;19.58;100.00;102029.16;5237140;28;20033;-70
2023/05/08 08:52:44;;;;;;;26.85;24.48;;;;;;;20.02;100.00;102025.53;5245924;28;20063;-70
2023/05/08 08:55:17;;;;;;;27.80;25.35;;;;;;;19.95;100.00;102020.00;5245308;28;20029;-70
2023/05/08 08:58:03;;;;;;;27.52;25.23;;;;;;;20.01;100.00;102022.03;5241755;28;20025;-70
2023/05/08 09:00:36;;;;;;;28.10;25.50;;;;;;;19.92;100.00;102025.66;5237905;28;20515;-70
2023/05/08 09:03:08;;;;;;;28.13;25.73;;;;;;;19.92;100.00;102026.47;5212255;28;20090;-70
2023/05/08 09:05:39;;;;;;;28.47;25.93;;;;;;;19.76;100.00;102030.94;5231998;28;20021;-70
2023/05/08 09:08:11;;;;;;;29.17;26.57;;;;;;;19.73;100.00;102026.75;5240504;28;20032;-70
2023/05/08 09:10:43;;;;;;;29.97;27.27;;;;;;;19.70;100.00;102032.44;5243889;28;20441;-70
2023/05/08 09:13:14;;;;;;;31.47;28.57;;;;;;;19.73;100.00;102025.94;5237468;28;20037;-70
2023/05/08 09:15:46;;;;;;;31.13;28.33;;;;;;;19.75;100.00;102038.09;5218632;28;20074;-70
2023/05/08 09:18:18;;;;;;;33.03;30.17;;;;;;;19.73;100.00;102034.75;5234030;28;20363;-70
2023/05/08 09:20:50;;;;;;;30.30;27.70;;;;;;;19.81;100.00;102028.63;5210809;28;20036;-70
2023/05/08 09:23:21;;;;;;;30.08;27.52;;;;;;;19.84;100.00;102033.63;5239145;28;20494;-70
2023/05/08 09:25:53;;;;;;;31.03;28.13;;;;;;;19.92;100.00;102028.31;5239489;28;20160;-70
2023/05/08 09:28:24;;;;;;;32.13;29.27;;;;;;;20.02;100.00;102029.00;5234282;28;20081;-70
2023/05/08 09:30:58;;;;;;;30.57;27.83;;;;;;;20.11;100.00;102028.00;5238071;28;20013;-70
2023/05/08 09:33:29;;;;;;;32.30;29.33;;;;;;;19.99;100.00;102029.31;5238182;28;20047;-70
2023/05/08 09:36:01;;;;;;;35.47;32.23;;;;;;;19.97;100.00;102033.16;5241227;28;20025;-70
2023/05/08 09:38:37;;;;;;;37.37;33.73;;;;;;;19.96;100.00;102031.47;5242085;28;20031;-70
2023/05/08 09:41:14;;;;;;;36.80;33.20;;;;;;;19.89;100.00;102026.00;5244927;28;20495;-70
2023/05/08 09:44:03;;;;;;;37.35;33.65;;;;;;;20.04;100.00;102024.38;5240863;28;20029;-69
2023/05/08 09:46:34;;;;;;;37.80;34.10;;;;;;;19.95;100.00;102028.00;5240837;28;20061;-70
2023/05/08 09:49:05;;;;;;;39.57;35.73;;;;;;;19.98;100.00;102027.66;5242627;28;20033;-70
2023/05/08 09:51:36;;;;;;;39.03;35.20;;;;;;;19.99;100.00;102033.81;5248124;28;20037;-70
2023/05/08 09:54:16;;;;;;;40.63;36.47;;;;;;;20.10;100.00;102029.03;5241706;28;20113;-70
2023/05/08 09:56:47;;;;;;;37.42;33.75;;;;;;;19.96;100.00;102032.31;5242480;28;20056;-70
2023/05/08 09:59:27;;;;;;;37.90;34.20;;;;;;;20.12;100.00;102037.69;5247355;28;20029;-70
2023/05/08 10:01:58;;;;;;;38.20;34.45;;;;;;;19.92;100.00;102037.13;5241203;28;20063;-70
2023/05/08 10:04:34;;;;;;;39.37;35.37;;;;;;;20.03;100.00;102030.66;5241892;28;20066;-70
2023/05/08 10:07:06;;;;;;;38.42;34.47;;;;;;;19.92;100.00;102031.78;5242687;28;20386;-70
2023/05/08 10:09:37;;;;;;;37.60;33.80;;;;;;;19.84;100.00;102022.97;5245242;28;20025;-70
2023/05/08 10:12:08;;;;;;;38.53;34.53;;;;;;;20.08;100.00;102030.19;5224568;28;20033;-70
2023/05/08 10:14:40;;;;;;;40.47;36.40;;;;;;;20.00;100.00;102036.34;5246029;28;20029;-70
2023/05/08 10:17:11;;;;;;;41.60;37.23;;;;;;;20.03;100.00;102038.66;5242863;28;20437;-70
2023/05/08 10:19:45;;;;;;;40.50;36.17;;;;;;;20.31;100.00;102035.72;5238535;28;20368;-70
2023/05/08 10:22:19;;;;;;;42.13;37.83;;;;;;;20.36;100.00;102041.38;5242290;28;20033;-70
2023/05/08 10:24:55;;;;;;;41.20;36.92;;;;;;;20.38;100.00;102042.00;5244898;28;20554;-70
2023/05/08 10:27:37;;;;;;;42.88;38.38;;;;;;;20.52;100.00;102041.38;5240600;28;20040;-70
2023/05/08 10:30:11;;;;;;;42.47;38.05;;;;;;;20.53;100.00;102032.44;5239276;28;20072;-70
2023/05/08 10:32:47;;;;;;;40.13;36.22;;;;;;;20.39;100.00;102044.53;5226233;28;20025;-70
2023/05/08 10:35:20;;;;;;;40.38;36.40;;;;;;;20.40;100.00;102045.34;5240783;28;20024;-70
2023/05/08 10:37:54;;;;;;;39.92;35.85;;;;;;;20.43;100.00;102031.72;5238148;28;20368;-70
2023/05/08 10:40:25;;;;;;;39.03;35.13;;;;;;;20.33;100.00;102039.03;5241757;28;20052;-70
2023/05/08 10:42:58;;;;;;;41.63;37.33;;;;;;;20.34;100.00;102038.03;5243044;28;20116;-70
2023/05/08 10:45:30;;;;;;;42.67;37.40;;;;;;;20.21;100.00;102035.03;5238520;28;20131;-70
2023/05/08 10:48:14;;;;;;;;;;;;;;;20.97;100.00;102031.19;5220333;28;20399;-70
2023/05/08 10:50:55;;;;;;;;;;;;;;;20.98;100.00;102038.19;5224052;28;20428;-71
2023/05/08 10:53:45;;;;;;;42.30;37.88;;;;;;;20.33;100.00;102039.03;5243711;28;20021;-70
2023/05/08 10:56:16;;;;;;;43.03;38.63;;;;;;;20.44;100.00;102036.03;5226861;28;20034;-70
2023/05/08 10:58:55;;;;;;;43.07;38.73;;;;;;;20.55;100.00;102029.59;5240369;28;20037;-70
2023/05/08 11:01:26;;;;;;;43.65;38.45;;;;;;;20.59;100.00;102031.75;5246646;28;20036;-70
2023/05/08 11:03:58;;;;;;;44.63;39.93;;;;;;;20.57;100.00;102031.09;5249894;28;20025;-70
2023/05/08 11:06:47;;;;;;;42.57;37.97;;;;;;;20.95;100.00;102027.88;5241172;28;20498;-70
2023/05/08 11:09:26;;;;;;;43.33;38.78;;;;;;;20.90;100.00;102031.03;5242944;28;20149;-70
2023/05/08 11:12:03;;;;;;;43.50;38.97;;;;;;;21.28;100.00;102023.28;5245337;28;20036;-70
2023/05/08 11:14:40;;;;;;;40.40;36.08;;;;;;;21.34;100.00;102026.13;5229261;28;20029;-70
2023/05/08 11:17:11;;;;;;;40.85;36.47;;;;;;;21.47;100.00;102016.75;5243430;28;20168;-70
2023/05/08 11:19:55;;;;;;;40.20;36.00;;;;;;;21.57;100.00;102007.53;5245377;28;20107;-70
2023/05/08 11:22:28;;;;;;;39.33;35.42;;;;;;;21.46;100.00;102015.91;5243225;28;20025;-70
2023/05/08 11:25:09;;;;;;;38.95;35.10;;;;;;;21.52;100.00;102009.06;5244983;28;20025;-70
2023/05/08 11:27:40;;;;;;;40.08;35.95;;;;;;;21.44;100.00;102006.41;5227638;28;20457;-70
2023/05/08 11:30:25;;;;;;;39.57;35.53;;;;;;;21.70;100.00;102000.81;5246085;28;20092;-70
2023/05/08 11:33:02;;;;;;;40.45;36.35;;;;;;;21.67;100.00;101999.34;5242558;28;20070;-70